Time;durP1;ratioP1;P1;durP2;ratioP2;P2;SDS_P1;SDS_P2;PMS_P1;PMS_P2;Temp;Humidity;BMP_temperature;BMP_pressure;BME280_temperature;BME280_humidity;BME280_pressure;Samples;Min_cycle;Max_cycle;Signal;HPM_P1;HPM_P2
2022/09/20 00:02:19;;;;;;;0.47;0.10;;;21.90;79.90;;;;;;5135870;27;45405;-74
2022/09/20 00:04:48;;;;;;;0.43;0.20;;;21.90;79.90;;;;;;5142830;27;45495;-73
2022/09/20 00:07:14;;;;;;;0.73;0.10;;;21.90;80.00;;;;;;5137273;27;47721;-74
2022/09/20 00:09:43;;;;;;;0.20;0.20;;;21.90;79.90;;;;;;5143801;27;45275;-73
2022/09/20 00:12:09;;;;;;;0.95;0.20;;;21.90;79.90;;;;;;5137693;27;45248;-73
2022/09/20 00:14:36;;;;;;;0.43;0.22;;;21.90;79.90;;;;;;5144742;27;45305;-73
2022/09/20 00:17:03;;;;;;;0.32;0.20;;;21.90;79.90;;;;;;5138558;27;46398;-73
2022/09/20 00:19:30;;;;;;;0.22;0.10;;;21.80;79.80;;;;;;5134101;27;45391;-73
2022/09/20 00:21:56;;;;;;;0.20;0.20;;;21.90;79.90;;;;;;5138439;27;45762;-73
2022/09/20 00:24:23;;;;;;;0.90;0.30;;;21.90;79.90;;;;;;5136269;27;45559;-73
2022/09/20 00:26:51;;;;;;;0.20;0.20;;;21.90;80.00;;;;;;5144363;27;46661;-74
2022/09/20 00:29:18;;;;;;;0.45;0.20;;;21.90;80.10;;;;;;5137544;27;45312;-73
2022/09/20 00:31:46;;;;;;;0.20;0.20;;;21.90;80.10;;;;;;5135250;27;45363;-74
2022/09/20 00:37:02;;;;;;;0.73;0.20;;;21.90;79.90;;;;;;5121137;27;45451;-73
2022/09/20 00:39:29;;;;;;;0.57;0.15;;;21.90;80.00;;;;;;5139968;27;45634;-74
2022/09/20 00:41:57;;;;;;;0.30;0.20;;;21.90;79.90;;;;;;5140582;27;45482;-73
2022/09/20 00:44:48;;;;;;;0.30;0.20;;;21.90;79.90;;;;;;5137718;27;45296;-74
2022/09/20 00:47:22;;;;;;;1.02;0.20;;;21.90;79.90;;;;;;5141806;27;47861;-73
2022/09/20 00:49:52;;;;;;;0.10;0.10;;;21.90;80.00;;;;;;5139237;27;45395;-73
2022/09/20 00:52:19;;;;;;;0.35;0.20;;;21.90;79.90;;;;;;5137145;27;45409;-73
2022/09/20 00:54:47;;;;;;;0.55;0.20;;;21.90;80.00;;;;;;5137295;27;45647;-73
2022/09/20 00:57:15;;;;;;;0.47;0.20;;;21.90;79.90;;;;;;5126990;27;47610;-73
2022/09/20 00:59:46;;;;;;;0.28;0.13;;;21.90;79.90;;;;;;5126530;27;45539;-73
2022/09/20 01:02:16;;;;;;;0.50;0.30;;;21.90;79.90;;;;;;5134977;27;45373;-73
2022/09/20 01:04:43;;;;;;;0.65;0.20;;;21.90;79.90;;;;;;5137544;27;45595;-74
2022/09/20 01:07:13;;;;;;;0.10;0.08;;;21.90;79.90;;;;;;5128741;27;46318;-73
2022/09/20 01:09:40;;;;;;;0.10;0.10;;;21.90;79.90;;;;;;5127755;27;45589;-74
2022/09/20 01:12:12;;;;;;;1.33;0.10;;;21.90;79.90;;;;;;5143044;27;45444;-73
2022/09/20 01:14:42;;;;;;;0.45;0.20;;;21.80;79.80;;;;;;5144764;27;45325;-74
2022/09/20 01:17:10;;;;;;;0.10;0.10;;;21.80;79.80;;;;;;5131629;27;46563;-74
2022/09/20 01:19:47;;;;;;;0.57;0.10;;;21.80;80.10;;;;;;5142779;27;45229;-73
2022/09/20 01:22:23;;;;;;;0.10;0.10;;;21.90;81.50;;;;;;5138617;27;45193;-74
2022/09/20 01:24:57;;;;;;;1.60;0.20;;;21.80;80.30;;;;;;5129839;27;45319;-73
2022/09/20 01:27:47;;;;;;;0.35;0.20;;;21.80;80.30;;;;;;5138447;27;46384;-73
2022/09/20 01:30:19;;;;;;;0.20;0.15;;;21.90;80.30;;;;;;5143424;27;45472;-74
2022/09/20 01:32:58;;;;;;;0.30;0.10;;;21.90;80.20;;;;;;5141871;27;45465;-74
2022/09/20 01:35:27;;;;;;;0.20;0.20;;;21.90;80.20;;;;;;5142951;27;45337;-74
2022/09/20 01:38:08;;;;;;;1.17;0.10;;;21.90;80.00;;;;;;5144998;27;48164;-74
2022/09/20 01:40:40;;;;;;;0.55;0.20;;;21.90;80.10;;;;;;5128589;27;45347;-74
2022/09/20 01:43:18;;;;;;;0.30;0.10;;;21.90;79.90;;;;;;5144683;27;45328;-73
2022/09/20 01:45:49;;;;;;;0.57;0.17;;;21.90;79.90;;;;;;5145404;27;45397;-74
2022/09/20 01:48:25;;;;;;;0.10;0.10;;;21.90;79.90;;;;;;5141410;27;45387;-73
2022/09/20 01:51:24;;;;;;;0.43;0.20;;;21.90;79.90;;;;;;5148020;27;45265;-74
2022/09/20 01:54:26;;;;;;;0.38;0.28;;;21.90;80.10;;;;;;5140690;27;45424;-74
2022/09/20 01:57:22;;;;;;;0.30;0.10;;;21.80;79.80;;;;;;5134988;27;45499;-74
2022/09/20 02:00:05;;;;;;;0.20;0.20;;;21.90;79.90;;;;;;5143234;27;46121;-73
2022/09/20 02:03:12;;;;;;;0.45;0.20;;;21.80;79.80;;;;;;5142991;27;45396;-73
2022/09/20 02:06:14;;;;;;;0.65;0.30;;;21.80;79.80;;;;;;5147532;27;45321;-74
2022/09/20 02:09:02;;;;;;;0.47;0.17;;;21.80;79.80;;;;;;5124973;27;45348;-74
2022/09/20 02:11:40;;;;;;;0.43;0.20;;;21.80;79.80;;;;;;5131971;27;46472;-73
2022/09/20 02:14:39;;;;;;;0.30;0.30;;;21.90;79.90;;;;;;5133618;27;45420;-74
2022/09/20 02:17:12;;;;;;;0.60;0.28;;;21.90;79.90;;;;;;5137046;27;45382;-75
2022/09/20 02:20:07;;;;;;;0.32;0.20;;;21.80;79.70;;;;;;5139568;27;45339;-74
2022/09/20 02:22:48;;;;;;;0.30;0.30;;;21.80;80.20;;;;;;5134636;27;46618;-74
2022/09/20 02:25:31;;;;;;;0.73;0.10;;;21.80;79.80;;;;;;5135790;27;45324;-73
2022/09/20 02:28:08;;;;;;;0.43;0.30;;;21.90;79.10;;;;;;5135832;27;45340;-73
2022/09/20 02:30:47;;;;;;;0.17;0.17;;;21.90;78.80;;;;;;5141370;27;45462;-73
2022/09/20 02:33:31;;;;;;;0.28;0.10;;;21.80;78.90;;;;;;5134076;27;45425;-74
2022/09/20 02:36:14;;;;;;;0.60;0.20;;;21.90;78.70;;;;;;5146230;27;45373;-74
2022/09/20 02:38:49;;;;;;;0.20;0.20;;;21.90;78.60;;;;;;5147352;27;45359;-74
2022/09/20 02:42:00;;;;;;;0.13;0.13;;;21.90;78.70;;;;;;5147557;27;45341;-74
2022/09/20 02:44:52;;;;;;;0.20;0.20;;;21.90;78.70;;;;;;5131711;27;47418;-74
2022/09/20 02:47:27;;;;;;;0.10;0.10;;;21.80;78.50;;;;;;5141781;27;45237;-74
2022/09/20 02:50:05;;;;;;;0.20;0.20;;;21.80;78.50;;;;;;5136754;27;45426;-74
2022/09/20 02:52:43;;;;;;;0.38;0.20;;;21.90;78.50;;;;;;5135272;27;45537;-74
2022/09/20 02:55:14;;;;;;;0.17;0.13;;;21.80;78.40;;;;;;5146021;27;46352;-73
2022/09/20 02:57:50;;;;;;;0.10;0.10;;;21.80;78.30;;;;;;5146536;27;45369;-73
2022/09/20 03:00:22;;;;;;;0.10;0.10;;;21.80;78.30;;;;;;5136689;27;45244;-74
2022/09/20 03:03:02;;;;;;;1.08;0.10;;;21.80;78.40;;;;;;5141358;27;45265;-73
2022/09/20 03:05:36;;;;;;;0.15;0.10;;;21.80;78.40;;;;;;5133491;27;46459;-74
2022/09/20 03:08:31;;;;;;;0.30;0.20;;;21.90;78.10;;;;;;5146771;27;45289;-73
2022/09/20 03:11:09;;;;;;;0.20;0.10;;;21.80;78.20;;;;;;5134758;27;45318;-74
2022/09/20 03:13:50;;;;;;;0.40;0.20;;;21.80;78.40;;;;;;5141450;27;45371;-74
2022/09/20 03:16:28;;;;;;;0.35;0.17;;;21.80;78.20;;;;;;5139725;27;46415;-74
2022/09/20 03:19:02;;;;;;;0.20;0.20;;;21.80;78.20;;;;;;5129632;27;45487;-74
2022/09/20 03:21:42;;;;;;;0.38;0.10;;;21.80;78.30;;;;;;5136552;27;45595;-74
2022/09/20 03:24:26;;;;;;;0.57;0.20;;;21.90;78.40;;;;;;5137977;27;45504;-74
2022/09/20 03:26:57;;;;;;;0.57;0.20;;;21.90;78.20;;;;;;5132823;27;45398;-74
2022/09/20 03:29:37;;;;;;;0.15;0.15;;;21.90;78.20;;;;;;5137176;27;45346;-73
2022/09/20 03:32:17;;;;;;;0.15;0.15;;;21.80;77.80;;;;;;5144017;27;45433;-73
2022/09/20 03:34:58;;;;;;;0.80;0.20;;;21.80;77.80;;;;;;5137670;27;45550;-73
2022/09/20 03:37:45;;;;;;;0.30;0.17;;;21.80;77.50;;;;;;5143404;27;45347;-74
2022/09/20 03:40:51;;;;;;;0.30;0.20;;;21.80;77.70;;;;;;5135495;27;45280;-74
2022/09/20 03:43:32;;;;;;;0.20;0.20;;;21.80;77.80;;;;;;5125189;27;45394;-74
2022/09/20 03:46:16;;;;;;;0.10;0.10;;;21.80;78.00;;;;;;5141132;27;45524;-74
2022/09/20 03:49:10;;;;;;;0.30;0.20;;;21.80;77.90;;;;;;5136680;27;46431;-73
2022/09/20 03:51:45;;;;;;;0.10;0.10;;;21.80;77.80;;;;;;5135573;27;45448;-74
2022/09/20 03:54:42;;;;;;;1.00;0.40;;;21.80;78.00;;;;;;5134368;27;45328;-75
2022/09/20 03:57:35;;;;;;;0.63;0.30;;;21.80;78.00;;;;;;5141448;27;45480;-74
2022/09/20 04:00:32;;;;;;;0.17;0.10;;;21.80;77.80;;;;;;5132311;27;46733;-74
2022/09/20 04:03:25;;;;;;;0.28;0.20;;;21.80;77.60;;;;;;5135851;27;45271;-73
2022/09/20 04:06:05;;;;;;;0.30;0.20;;;21.80;78.20;;;;;;5139001;27;45537;-74
2022/09/20 04:09:01;;;;;;;0.43;0.20;;;21.80;78.00;;;;;;5137582;27;45292;-74
2022/09/20 04:11:37;;;;;;;0.52;0.08;;;21.80;78.00;;;;;;5136715;27;48215;-74
2022/09/20 04:14:14;;;;;;;0.73;0.30;;;21.80;78.00;;;;;;5140225;27;45213;-73
2022/09/20 04:16:48;;;;;;;0.47;0.20;;;21.80;77.70;;;;;;5134152;27;45438;-73
2022/09/20 04:19:22;;;;;;;0.20;0.20;;;21.80;77.70;;;;;;5144243;27;45469;-73
2022/09/20 04:21:54;;;;;;;0.20;0.17;;;21.80;77.80;;;;;;5145094;27;47356;-74
2022/09/20 04:24:32;;;;;;;0.57;0.20;;;21.80;77.70;;;;;;5140102;27;45538;-74
2022/09/20 04:27:02;;;;;;;0.75;0.20;;;21.90;77.70;;;;;;5140786;27;45516;-74
2022/09/20 04:29:37;;;;;;;0.13;0.13;;;21.80;77.60;;;;;;5134075;27;45495;-73
2022/09/20 04:32:14;;;;;;;0.35;0.25;;;21.80;77.40;;;;;;5138405;27;46378;-74
2022/09/20 04:37:35;;;;;;;0.35;0.35;;;21.80;77.50;;;;;;5134013;27;45393;-74
2022/09/20 04:40:14;;;;;;;0.20;0.20;;;21.80;77.50;;;;;;5139396;27;45352;-73
2022/09/20 04:43:23;;;;;;;0.80;0.30;;;21.80;77.50;;;;;;5125271;27;46567;-74
2022/09/20 04:46:23;;;;;;;0.35;0.13;;;21.80;77.80;;;;;;5134390;27;45343;-73
2022/09/20 04:49:45;;;;;;;0.45;0.30;;;21.80;77.60;;;;;;5127052;27;45655;-74
2022/09/20 04:52:44;;;;;;;0.90;0.30;;;21.80;77.70;;;;;;5138956;27;45355;-74
2022/09/20 04:55:41;;;;;;;0.65;0.20;;;21.80;77.50;;;;;;5135968;27;45369;-74
2022/09/20 04:58:36;;;;;;;1.55;0.25;;;21.80;77.50;;;;;;5130361;27;45257;-74
2022/09/20 05:01:47;;;;;;;0.20;0.20;;;21.80;77.60;;;;;;5132943;27;45525;-73
2022/09/20 05:04:44;;;;;;;0.40;0.30;;;21.80;77.80;;;;;;5072209;27;45451;-74
2022/09/20 05:07:29;;;;;;;0.30;0.20;;;21.80;77.60;;;;;;5137533;27;47242;-74
2022/09/20 05:10:26;;;;;;;1.35;0.20;;;21.80;77.40;;;;;;5136326;27;45528;-73
2022/09/20 05:13:13;;;;;;;0.57;0.30;;;21.80;77.70;;;;;;5131755;27;45351;-74
2022/09/20 05:15:52;;;;;;;0.30;0.30;;;21.80;77.60;;;;;;5129822;27;45345;-75
2022/09/20 05:18:51;;;;;;;0.20;0.20;;;21.80;77.50;;;;;;5142966;27;47532;-74
2022/09/20 05:21:53;;;;;;;0.20;0.20;;;21.80;77.40;;;;;;5134261;27;45424;-73
2022/09/20 05:24:37;;;;;;;0.52;0.20;;;21.80;77.40;;;;;;5134536;27;45534;-73
2022/09/20 05:27:18;;;;;;;0.28;0.20;;;21.80;77.50;;;;;;5128457;27;45257;-74
2022/09/20 05:29:55;;;;;;;0.30;0.20;;;21.80;77.80;;;;;;5142908;27;48317;-73
2022/09/20 05:32:27;;;;;;;0.35;0.25;;;21.80;77.80;;;;;;5136330;27;45422;-73
2022/09/20 05:35:00;;;;;;;0.90;0.20;;;21.80;77.80;;;;;;5139948;27;45437;-74
2022/09/20 05:37:39;;;;;;;0.67;0.30;;;21.80;77.80;;;;;;5142219;27;45445;-74
2022/09/20 05:40:18;;;;;;;0.40;0.25;;;21.80;78.10;;;;;;5140154;27;46627;-74
2022/09/20 05:42:52;;;;;;;0.55;0.30;;;21.80;78.00;;;;;;5142880;27;45421;-73
2022/09/20 05:45:47;;;;;;;0.50;0.30;;;21.80;78.10;;;;;;5136182;27;45432;-73
2022/09/20 05:48:23;;;;;;;0.70;0.30;;;21.90;78.10;;;;;;5138456;27;45620;-73
2022/09/20 05:50:56;;;;;;;0.68;0.30;;;21.80;77.90;;;;;;5131607;27;46485;-72
2022/09/20 05:53:53;;;;;;;0.20;0.20;;;21.80;77.80;;;;;;5129252;27;45438;-73
2022/09/20 05:56:31;;;;;;;0.22;0.22;;;21.80;77.90;;;;;;5130958;27;45245;-72
2022/09/20 05:59:29;;;;;;;0.77;0.30;;;21.80;78.00;;;;;;5127793;27;45292;-73
2022/09/20 06:02:27;;;;;;;0.85;0.40;;;21.80;78.00;;;;;;5110321;27;46564;-74
2022/09/20 06:05:02;;;;;;;6.22;0.50;;;21.80;77.70;;;;;;5118915;27;45313;-73
2022/09/20 06:07:44;;;;;;;1.60;0.65;;;21.80;79.80;;;;;;5140279;27;45267;-73
2022/09/20 06:10:38;;;;;;;0.32;0.32;;;21.80;78.80;;;;;;5148896;27;45420;-73
2022/09/20 06:13:19;;;;;;;4.43;0.60;;;21.80;78.20;;;;;;5108451;27;47526;-73
2022/09/20 06:15:57;;;;;;;0.95;0.47;;;21.80;79.20;;;;;;5140780;27;45483;-74
2022/09/20 06:18:28;;;;;;;1.48;0.40;;;21.90;78.30;;;;;;5140656;27;45462;-74
2022/09/20 06:21:03;;;;;;;0.90;0.50;;;21.80;78.30;;;;;;5145189;27;45445;-74
2022/09/20 06:23:32;;;;;;;0.65;0.32;;;21.80;78.30;;;;;;5142544;27;45581;-73
2022/09/20 06:26:06;;;;;;;0.57;0.30;;;21.80;78.50;;;;;;5142811;27;45421;-73
2022/09/20 06:28:38;;;;;;;0.68;0.40;;;21.90;78.60;;;;;;5145111;27;45360;-74
2022/09/20 06:31:10;;;;;;;1.90;0.40;;;21.80;78.50;;;;;;5142978;27;45336;-73
2022/09/20 06:33:43;;;;;;;1.13;0.40;;;21.80;78.60;;;;;;5146645;27;47736;-74
2022/09/20 06:42:01;;;;;;;1.02;0.47;;;21.80;78.80;;;;;;5097894;27;45552;-74
2022/09/20 06:44:28;;;;;;;0.45;0.30;;;21.80;78.80;;;;;;5140954;27;48062;-74
2022/09/20 06:46:55;;;;;;;1.27;0.20;;;21.80;78.90;;;;;;5138082;27;45385;-73
2022/09/20 06:49:22;;;;;;;0.93;0.40;;;21.80;78.90;;;;;;5141186;27;45317;-74
2022/09/20 06:51:50;;;;;;;0.40;0.38;;;21.80;79.10;;;;;;5148290;27;45451;-74
2022/09/20 06:54:19;;;;;;;2.70;0.45;;;21.80;79.10;;;;;;5134477;27;46911;-73
2022/09/20 06:56:47;;;;;;;2.03;0.40;;;21.80;79.10;;;;;;5146267;27;45540;-74
2022/09/20 06:59:15;;;;;;;1.48;0.35;;;21.80;79.20;;;;;;5140842;27;45364;-73
2022/09/20 07:01:43;;;;;;;2.25;0.50;;;21.90;79.30;;;;;;5135803;27;45362;-74
2022/09/20 07:04:09;;;;;;;1.02;0.50;;;21.80;79.10;;;;;;5142420;27;46334;-74
2022/09/20 07:06:36;;;;;;;1.33;0.30;;;21.90;79.30;;;;;;5134130;27;45436;-73
2022/09/20 07:09:04;;;;;;;0.20;0.20;;;21.90;79.30;;;;;;5144466;27;45323;-73
2022/09/20 07:11:33;;;;;;;2.13;0.32;;;21.90;79.40;;;;;;5145759;27;45366;-74
2022/09/20 07:14:08;;;;;;;1.70;0.50;;;21.90;79.30;;;;;;5138775;27;46547;-74
2022/09/20 07:16:37;;;;;;;0.52;0.25;;;21.90;79.60;;;;;;5143496;27;45554;-74
2022/09/20 07:19:05;;;;;;;3.33;0.73;;;21.90;79.30;;;;;;5145259;27;45492;-74
2022/09/20 07:21:32;;;;;;;0.25;0.20;;;21.90;79.60;;;;;;5146275;27;45385;-74
2022/09/20 07:23:59;;;;;;;9.13;1.10;;;21.90;79.50;;;;;;5142092;27;46586;-72
2022/09/20 07:26:29;;;;;;;20.27;2.00;;;21.90;79.90;;;;;;5143631;27;45409;-72
2022/09/20 07:28:56;;;;;;;30.33;1.95;;;21.90;79.50;;;;;;5143155;27;45373;-75
2022/09/20 07:31:25;;;;;;;16.05;1.65;;;22.00;79.80;;;;;;5149261;27;45140;-76
2022/09/20 07:33:53;;;;;;;7.68;1.20;;;21.90;79.80;;;;;;5149436;27;46477;-76
2022/09/20 07:36:20;;;;;;;5.65;0.68;;;21.90;79.90;;;;;;5149245;27;45657;-76
2022/09/20 07:38:48;;;;;;;6.25;0.90;;;21.90;79.70;;;;;;5149616;27;45298;-76
2022/09/20 07:41:17;;;;;;;2.67;0.55;;;21.90;79.40;;;;;;5148890;27;45562;-75
2022/09/20 07:43:45;;;;;;;5.15;1.05;;;21.90;79.50;;;;;;5143026;27;45718;-75
2022/09/20 07:46:13;;;;;;;2.75;0.47;;;21.90;79.30;;;;;;5128108;27;45662;-75
2022/09/20 07:48:40;;;;;;;1.77;0.50;;;21.90;79.50;;;;;;5128554;27;45233;-76
2022/09/20 07:51:11;;;;;;;2.20;0.70;;;21.90;79.20;;;;;;5128432;27;45474;-76
2022/09/20 07:53:38;;;;;;;6.07;0.80;;;21.90;79.20;;;;;;5128209;27;45300;-76
2022/09/20 07:56:07;;;;;;;4.20;0.75;;;21.90;79.10;;;;;;5128347;27;45603;-76
2022/09/20 07:58:35;;;;;;;3.67;0.70;;;21.90;78.80;;;;;;5128071;27;45378;-75
2022/09/20 08:01:04;;;;;;;2.33;0.70;;;21.90;78.70;;;;;;5128010;27;45130;-76
2022/09/20 08:03:32;;;;;;;2.75;0.55;;;21.90;78.60;;;;;;5127923;27;46410;-75
2022/09/20 08:06:00;;;;;;;3.08;0.40;;;21.90;78.40;;;;;;5128155;27;45319;-76
2022/09/20 08:08:32;;;;;;;2.00;0.50;;;21.90;78.20;;;;;;5149313;27;45159;-76
2022/09/20 08:11:05;;;;;;;7.05;0.55;;;21.90;78.20;;;;;;5149211;27;45376;-76
2022/09/20 08:13:34;;;;;;;0.77;0.28;;;21.90;78.20;;;;;;5149116;27;45541;-75
2022/09/20 08:16:02;;;;;;;1.17;0.57;;;21.90;78.10;;;;;;5148984;27;45251;-75
2022/09/20 08:18:29;;;;;;;1.25;0.30;;;21.90;78.00;;;;;;5148870;27;45347;-76
2022/09/20 08:20:56;;;;;;;0.40;0.20;;;21.90;77.80;;;;;;5149277;27;45623;-76
2022/09/20 08:23:23;;;;;;;0.28;0.20;;;21.90;77.60;;;;;;5148546;27;48257;-76
2022/09/20 08:25:51;;;;;;;1.00;0.50;;;21.90;77.40;;;;;;5148540;27;45272;-76
2022/09/20 08:28:18;;;;;;;1.00;0.40;;;21.90;77.30;;;;;;5148140;27;45224;-76
2022/09/20 08:30:44;;;;;;;1.77;0.40;;;21.90;77.20;;;;;;5148718;27;45415;-76
2022/09/20 08:33:12;;;;;;;1.80;0.73;;;21.90;77.20;;;;;;5148452;27;45255;-76
2022/09/20 08:35:38;;;;;;;1.35;0.45;;;21.90;77.20;;;;;;5148660;27;45159;-76
2022/09/20 08:38:06;;;;;;;1.20;0.50;;;21.90;77.20;;;;;;5148738;27;45169;-76
2022/09/20 08:40:34;;;;;;;1.17;0.50;;;21.90;77.30;;;;;;5149115;27;45115;-76
2022/09/20 08:43:03;;;;;;;2.83;0.30;;;21.90;77.20;;;;;;5148479;27;47053;-76
2022/09/20 08:45:29;;;;;;;2.08;0.30;;;21.90;77.20;;;;;;5148579;27;45180;-76
2022/09/20 08:48:00;;;;;;;0.65;0.30;;;21.90;77.20;;;;;;5148635;27;45203;-76
2022/09/20 08:50:27;;;;;;;2.85;0.40;;;21.90;77.20;;;;;;5148726;27;45079;-76
2022/09/20 08:52:57;;;;;;;2.05;0.20;;;21.90;77.10;;;;;;5148590;27;46758;-76
2022/09/20 08:55:26;;;;;;;0.68;0.40;;;21.90;77.00;;;;;;5148198;27;46269;-76
2022/09/20 08:57:58;;;;;;;0.52;0.20;;;21.90;76.90;;;;;;5148476;27;45176;-76
2022/09/20 09:00:31;;;;;;;1.17;0.40;;;21.90;76.80;;;;;;5149154;27;45155;-76
2022/09/20 09:03:00;;;;;;;1.13;0.40;;;21.90;76.80;;;;;;5148162;27;47335;-76
2022/09/20 09:05:33;;;;;;;1.38;0.22;;;22.00;76.10;;;;;;5148473;27;45392;-77
2022/09/20 09:08:04;;;;;;;0.52;0.30;;;21.90;75.60;;;;;;5148903;27;45243;-77
2022/09/20 09:10:35;;;;;;;0.20;0.20;;;22.00;75.60;;;;;;5145455;27;45137;-76
2022/09/20 09:13:02;;;;;;;2.42;0.40;;;21.90;75.40;;;;;;5148259;27;45494;-76
2022/09/20 09:15:33;;;;;;;1.20;0.40;;;21.90;76.10;;;;;;5130039;27;45210;-77
2022/09/20 09:18:00;;;;;;;1.23;0.30;;;21.90;75.80;;;;;;5148549;27;45240;-76
2022/09/20 09:20:27;;;;;;;1.30;0.30;;;21.90;76.10;;;;;;5148611;27;45109;-77
2022/09/20 09:23:03;;;;;;;0.85;0.30;;;21.90;76.10;;;;;;5148125;27;45368;-76
2022/09/20 09:25:33;;;;;;;0.77;0.30;;;21.90;76.00;;;;;;5148657;27;45206;-76
2022/09/20 09:28:04;;;;;;;1.23;0.32;;;21.90;76.00;;;;;;5147968;27;45304;-77
2022/09/20 09:30:35;;;;;;;0.77;0.15;;;21.90;76.00;;;;;;5148474;27;45343;-76
2022/09/20 09:33:25;;;;;;;0.63;0.30;;;21.90;76.00;;;;;;5148117;27;45267;-76
2022/09/20 09:35:54;;;;;;;0.20;0.10;;;21.90;75.70;;;;;;5148554;27;45341;-76
2022/09/20 09:38:24;;;;;;;1.20;0.35;;;21.90;75.90;;;;;;5148189;27;45083;-77
2022/09/20 09:40:53;;;;;;;1.10;0.30;;;21.90;76.20;;;;;;5151137;27;45150;-76
2022/09/20 09:43:25;;;;;;;0.52;0.20;;;21.90;76.10;;;;;;5151271;27;46699;-76
2022/09/20 09:45:54;;;;;;;0.40;0.40;;;21.90;75.90;;;;;;5151861;27;45157;-76
2022/09/20 09:48:25;;;;;;;1.52;0.30;;;21.90;75.90;;;;;;5151436;27;45258;-76
2022/09/20 09:51:10;;;;;;;0.40;0.20;;;21.90;75.50;;;;;;5151782;27;45438;-76
2022/09/20 09:53:38;;;;;;;0.68;0.50;;;21.90;75.60;;;;;;5141640;27;46338;-71
2022/09/20 09:56:38;;;;;;;1.85;0.38;;;21.90;76.10;;;;;;5140807;27;45254;-73
2022/09/20 09:59:37;;;;;;;4.78;0.50;;;21.90;77.10;;;;;;5150286;27;45256;-74
2022/09/20 10:02:22;;;;;;;28.15;2.88;;;22.00;77.90;;;;;;5129536;27;45188;-74
2022/09/20 10:04:56;;;;;;;19.33;1.83;;;22.00;78.10;;;;;;5130037;27;45525;-75
2022/09/20 10:07:30;;;;;;;11.00;1.60;;;22.00;77.70;;;;;;5130176;27;45151;-75
2022/09/20 10:10:06;;;;;;;8.82;1.00;;;22.00;77.30;;;;;;5130157;27;45256;-75
2022/09/20 10:12:59;;;;;;;6.68;0.95;;;22.00;77.40;;;;;;5130247;27;45559;-75
2022/09/20 10:15:55;;;;;;;4.30;0.82;;;22.00;77.60;;;;;;5130339;27;47503;-75
2022/09/20 10:18:33;;;;;;;2.95;0.38;;;22.00;77.70;;;;;;5130620;27;45346;-75
2022/09/20 10:21:12;;;;;;;3.45;0.40;;;22.00;77.60;;;;;;5130366;27;45201;-75
2022/09/20 10:23:54;;;;;;;4.47;0.50;;;22.00;77.60;;;;;;5130102;27;45443;-75
2022/09/20 10:26:42;;;;;;;1.30;0.40;;;21.90;77.80;;;;;;5149703;27;46489;-75
2022/09/20 10:29:18;;;;;;;2.17;0.43;;;21.90;78.00;;;;;;5150878;27;45195;-75
2022/09/20 10:32:00;;;;;;;1.13;0.30;;;22.00;78.10;;;;;;5150984;27;45218;-75
2022/09/20 10:34:52;;;;;;;0.60;0.40;;;22.00;78.20;;;;;;5150951;27;45451;-75
2022/09/20 10:37:27;;;;;;;3.15;0.50;;;21.90;78.20;;;;;;5150497;27;45520;-75
2022/09/20 10:40:06;;;;;;;1.58;0.50;;;22.00;78.40;;;;;;5147460;27;45093;-75
2022/09/20 10:45:32;;;;;;;1.25;0.30;;;22.00;78.70;;;;;;5150958;27;45136;-75
2022/09/20 10:48:06;;;;;;;1.08;0.40;;;21.90;78.60;;;;;;5150747;27;46214;-75
2022/09/20 10:50:42;;;;;;;0.95;0.30;;;21.90;78.30;;;;;;5150275;27;45295;-74
2022/09/20 10:53:26;;;;;;;1.77;0.30;;;22.00;78.40;;;;;;5149913;27;45232;-74
2022/09/20 10:56:08;;;;;;;2.67;0.43;;;22.00;78.40;;;;;;5150134;27;45237;-75
2022/09/20 10:58:59;;;;;;;1.38;0.40;;;21.90;78.30;;;;;;5149838;27;46270;-74
2022/09/20 11:01:36;;;;;;;1.35;0.40;;;21.90;78.40;;;;;;5149671;27;45282;-75
2022/09/20 11:04:50;;;;;;;0.50;0.30;;;22.00;78.30;;;;;;5149858;27;45240;-75
2022/09/20 11:07:26;;;;;;;0.25;0.15;;;21.90;78.50;;;;;;5150281;27;45561;-75
2022/09/20 11:10:00;;;;;;;1.38;0.25;;;21.90;78.70;;;;;;5150133;27;45500;-75
2022/09/20 11:12:34;;;;;;;1.30;0.28;;;21.90;78.60;;;;;;5149817;27;45386;-75
2022/09/20 11:15:05;;;;;;;0.95;0.20;;;21.90;78.50;;;;;;5149952;27;45284;-74
2022/09/20 11:17:37;;;;;;;1.27;0.30;;;21.90;78.70;;;;;;5149772;27;45239;-74
2022/09/20 11:20:35;;;;;;;0.57;0.20;;;21.90;78.90;;;;;;5149829;27;47316;-74
2022/09/20 11:23:10;;;;;;;1.25;0.20;;;21.90;78.80;;;;;;5149573;27;45323;-75
2022/09/20 11:25:43;;;;;;;0.40;0.10;;;21.90;79.20;;;;;;5149670;27;45340;-74
2022/09/20 11:28:17;;;;;;;1.08;0.22;;;21.90;79.90;;;;;;5149505;27;45593;-75
2022/09/20 11:30:53;;;;;;;1.23;0.45;;;21.90;79.90;;;;;;5149387;27;46516;-74
2022/09/20 11:33:25;;;;;;;0.20;0.10;;;22.00;80.00;;;;;;5149727;27;45373;-74
2022/09/20 11:35:57;;;;;;;0.65;0.30;;;21.90;79.90;;;;;;5149647;27;45183;-75
2022/09/20 11:38:32;;;;;;;0.50;0.20;;;21.90;79.90;;;;;;5149922;27;45190;-75
2022/09/20 11:41:04;;;;;;;0.73;0.35;;;22.00;79.40;;;;;;5149287;27;46381;-75
2022/09/20 11:43:32;;;;;;;0.25;0.15;;;22.00;79.20;;;;;;5149764;27;45148;-75
2022/09/20 11:49:25;;;;;;;0.25;0.10;;;22.00;80.50;;;;;;5146572;27;45298;-75
2022/09/20 11:52:17;;;;;;;0.10;0.10;;;22.00;80.70;;;;;;5149113;27;46280;-75
2022/09/20 11:55:18;;;;;;;0.60;0.30;;;21.90;81.00;;;;;;5149370;27;45219;-74
2022/09/20 11:57:45;;;;;;;1.02;0.30;;;22.00;81.40;;;;;;5149930;27;45185;-75
2022/09/20 12:00:13;;;;;;;0.55;0.22;;;21.90;81.50;;;;;;5149715;27;45408;-75
2022/09/20 12:02:46;;;;;;;1.35;0.20;;;22.00;81.60;;;;;;5148081;27;47637;-75
2022/09/20 12:05:26;;;;;;;1.45;0.35;;;21.90;81.50;;;;;;5149331;27;45236;-75
2022/09/20 12:07:55;;;;;;;1.40;0.15;;;21.90;81.70;;;;;;5149401;27;45224;-75
2022/09/20 12:10:26;;;;;;;0.20;0.10;;;21.90;81.50;;;;;;5149149;27;45531;-75
2022/09/20 12:12:58;;;;;;;0.45;0.20;;;21.90;81.40;;;;;;5148790;27;45242;-75
2022/09/20 12:15:27;;;;;;;2.05;0.20;;;21.90;81.30;;;;;;5149016;27;45309;-75
2022/09/20 12:18:31;;;;;;;0.20;0.15;;;21.90;81.10;;;;;;5148966;27;45101;-75
2022/09/20 12:21:01;;;;;;;0.63;0.15;;;21.90;81.00;;;;;;5124666;27;45606;-75
2022/09/20 12:24:08;;;;;;;0.10;0.10;;;21.90;81.10;;;;;;5148906;27;46409;-75
2022/09/20 12:26:42;;;;;;;0.20;0.20;;;21.90;80.70;;;;;;5148983;27;45181;-75
2022/09/20 12:29:51;;;;;;;0.17;0.17;;;21.90;80.80;;;;;;5149316;27;45230;-75
2022/09/20 12:32:44;;;;;;;0.38;0.10;;;21.90;81.50;;;;;;5147600;27;45479;-75
2022/09/20 12:36:01;;;;;;;0.22;0.10;;;21.90;82.60;;;;;;5148869;27;46298;-75
2022/09/20 12:38:36;;;;;;;0.52;0.17;;;21.90;81.80;;;;;;5123040;27;45210;-75
2022/09/20 12:41:10;;;;;;;0.38;0.22;;;21.90;81.70;;;;;;5149302;27;45193;-75
2022/09/20 12:43:53;;;;;;;0.22;0.10;;;21.90;82.10;;;;;;5148658;27;45120;-75
2022/09/20 12:52:59;;;;;;;0.30;0.10;;;21.90;81.90;;;;;;5149142;27;45125;-76
2022/09/20 12:55:38;;;;;;;0.15;0.10;;;21.90;81.90;;;;;;5139017;27;45646;-75
2022/09/20 12:58:18;;;;;;;3.05;0.32;;;21.90;81.70;;;;;;5137626;27;47692;-74
2022/09/20 13:00:48;;;;;;;5.95;0.60;;;21.90;83.40;;;;;;5143408;27;45303;-71
2022/09/20 13:03:28;;;;;;;4.03;0.85;;;22.00;84.40;;;;;;5130187;27;45320;-71
2022/09/20 13:06:25;;;;;;;2.40;0.68;;;22.00;86.10;;;;;;5138797;27;45326;-74
2022/09/20 13:08:58;;;;;;;0.90;0.40;;;22.00;87.10;;;;;;5137529;27;47740;-73
2022/09/20 13:11:29;;;;;;;0.30;0.20;;;21.90;86.60;;;;;;5140751;27;45369;-74
2022/09/20 13:13:58;;;;;;;1.08;0.43;;;21.90;86.50;;;;;;5141802;27;45488;-74
2022/09/20 13:16:31;;;;;;;1.95;0.50;;;21.90;87.10;;;;;;5134515;27;45359;-73
2022/09/20 13:19:03;;;;;;;0.68;0.25;;;21.80;87.40;;;;;;5128333;27;48509;-73
2022/09/20 13:21:31;;;;;;;0.98;0.35;;;21.80;87.90;;;;;;5127613;27;45413;-74
2022/09/20 13:24:00;;;;;;;2.13;0.50;;;21.80;88.30;;;;;;5143877;27;45415;-74
2022/09/20 13:26:30;;;;;;;0.75;0.20;;;21.80;89.10;;;;;;5136964;27;45401;-73
2022/09/20 13:28:58;;;;;;;1.23;0.20;;;21.80;89.10;;;;;;5135295;27;47704;-73
2022/09/20 13:31:32;;;;;;;0.47;0.35;;;21.80;89.20;;;;;;5144271;27;45467;-74
2022/09/20 13:34:19;;;;;;;0.20;0.10;;;21.80;89.30;;;;;;5133004;27;45363;-73
2022/09/20 13:36:47;;;;;;;0.20;0.10;;;21.80;87.60;;;;;;5136647;27;45334;-73
2022/09/20 13:39:28;;;;;;;1.50;0.30;;;21.80;87.60;;;;;;5139430;27;46064;-74
2022/09/20 13:42:01;;;;;;;1.17;0.22;;;21.80;88.00;;;;;;5136181;27;45391;-73
2022/09/20 13:44:29;;;;;;;0.28;0.15;;;21.80;88.70;;;;;;5136811;27;45497;-73
2022/09/20 13:46:58;;;;;;;0.25;0.10;;;21.80;88.40;;;;;;5129552;27;45442;-73
2022/09/20 13:49:25;;;;;;;0.52;0.20;;;21.80;89.40;;;;;;5137934;27;48294;-73
2022/09/20 13:51:52;;;;;;;0.65;0.17;;;21.80;89.20;;;;;;5144192;27;45469;-73
2022/09/20 13:54:27;;;;;;;0.30;0.15;;;21.80;89.80;;;;;;5136290;27;45355;-73
2022/09/20 13:56:57;;;;;;;0.55;0.30;;;21.80;90.10;;;;;;5143757;27;45585;-73
2022/09/20 13:59:29;;;;;;;0.45;0.25;;;21.80;90.10;;;;;;5143348;27;46315;-74
2022/09/20 14:01:58;;;;;;;0.47;0.20;;;21.80;90.10;;;;;;5143116;27;45303;-74